sensor_id;sensor_type;location;lat;lon;timestamp;P1;durP1;ratioP1;P2;durP2;ratioP2
17207;SDS011;8720;48.488;9.202;2023-06-19T00:01:07;6.17;;;5.67;;
17207;SDS011;8720;48.488;9.202;2023-06-19T00:03:35;5.77;;;5.30;;
17207;SDS011;8720;48.488;9.202;2023-06-19T00:06:04;6.50;;;5.90;;
17207;SDS011;8720;48.488;9.202;2023-06-19T00:08:32;5.90;;;5.40;;
17207;SDS011;8720;48.488;9.202;2023-06-19T00:11:00;7.27;;;5.97;;
17207;SDS011;8720;48.488;9.202;2023-06-19T00:13:28;6.57;;;6.00;;
17207;SDS011;8720;48.488;9.202;2023-06-19T00:15:55;6.83;;;6.23;;
17207;SDS011;8720;48.488;9.202;2023-06-19T00:18:25;7.20;;;6.50;;
17207;SDS011;8720;48.488;9.202;2023-06-19T00:20:52;6.33;;;5.83;;
17207;SDS011;8720;48.488;9.202;2023-06-19T00:23:22;6.00;;;5.50;;
17207;SDS011;8720;48.488;9.202;2023-06-19T00:25:50;6.60;;;6.00;;
17207;SDS011;8720;48.488;9.202;2023-06-19T00:28:17;6.10;;;5.60;;
17207;SDS011;8720;48.488;9.202;2023-06-19T00:30:46;6.10;;;5.60;;
17207;SDS011;8720;48.488;9.202;2023-06-19T00:33:14;7.30;;;6.70;;
17207;SDS011;8720;48.488;9.202;2023-06-19T00:35:41;7.13;;;6.43;;
17207;SDS011;8720;48.488;9.202;2023-06-19T00:38:09;7.00;;;6.43;;
17207;SDS011;8720;48.488;9.202;2023-06-19T00:40:38;6.97;;;6.27;;
17207;SDS011;8720;48.488;9.202;2023-06-19T00:43:08;6.43;;;5.83;;
17207;SDS011;8720;48.488;9.202;2023-06-19T00:45:35;7.90;;;6.67;;
17207;SDS011;8720;48.488;9.202;2023-06-19T00:48:03;6.73;;;6.20;;
17207;SDS011;8720;48.488;9.202;2023-06-19T00:50:31;7.70;;;7.00;;
17207;SDS011;8720;48.488;9.202;2023-06-19T00:52:58;7.07;;;6.47;;
17207;SDS011;8720;48.488;9.202;2023-06-19T00:55:28;7.27;;;6.57;;
17207;SDS011;8720;48.488;9.202;2023-06-19T00:57:59;6.37;;;5.77;;
17207;SDS011;8720;48.488;9.202;2023-06-19T01:00:28;6.63;;;6.03;;
17207;SDS011;8720;48.488;9.202;2023-06-19T01:02:56;6.90;;;6.30;;
17207;SDS011;8720;48.488;9.202;2023-06-19T01:05:24;6.40;;;5.80;;
17207;SDS011;8720;48.488;9.202;2023-06-19T01:07:52;7.20;;;6.50;;
17207;SDS011;8720;48.488;9.202;2023-06-19T01:10:31;6.73;;;6.13;;
17207;SDS011;8720;48.488;9.202;2023-06-19T01:13:09;6.70;;;6.10;;
17207;SDS011;8720;48.488;9.202;2023-06-19T01:15:43;7.57;;;6.87;;
17207;SDS011;8720;48.488;9.202;2023-06-19T01:18:12;10.03;;;5.50;;
17207;SDS011;8720;48.488;9.202;2023-06-19T01:20:42;7.00;;;6.40;;
17207;SDS011;8720;48.488;9.202;2023-06-19T01:23:11;6.20;;;5.70;;
17207;SDS011;8720;48.488;9.202;2023-06-19T01:25:38;6.97;;;6.33;;
17207;SDS011;8720;48.488;9.202;2023-06-19T01:28:06;6.80;;;6.20;;
17207;SDS011;8720;48.488;9.202;2023-06-19T01:30:37;6.43;;;5.93;;
17207;SDS011;8720;48.488;9.202;2023-06-19T01:33:09;6.83;;;6.23;;
17207;SDS011;8720;48.488;9.202;2023-06-19T01:35:42;6.63;;;6.10;;
17207;SDS011;8720;48.488;9.202;2023-06-19T01:38:14;6.60;;;6.03;;
17207;SDS011;8720;48.488;9.202;2023-06-19T01:40:43;7.43;;;6.83;;
17207;SDS011;8720;48.488;9.202;2023-06-19T01:43:11;7.37;;;6.77;;
17207;SDS011;8720;48.488;9.202;2023-06-19T01:45:39;7.93;;;6.93;;
17207;SDS011;8720;48.488;9.202;2023-06-19T01:48:07;7.60;;;6.83;;
17207;SDS011;8720;48.488;9.202;2023-06-19T01:50:37;6.47;;;5.97;;
17207;SDS011;8720;48.488;9.202;2023-06-19T01:53:05;7.23;;;6.60;;
17207;SDS011;8720;48.488;9.202;2023-06-19T01:55:33;10.10;;;6.67;;
17207;SDS011;8720;48.488;9.202;2023-06-19T01:58:00;6.87;;;6.27;;
17207;SDS011;8720;48.488;9.202;2023-06-19T02:05:46;7.00;;;6.40;;
17207;SDS011;8720;48.488;9.202;2023-06-19T02:08:13;7.23;;;6.63;;
17207;SDS011;8720;48.488;9.202;2023-06-19T02:10:42;6.87;;;6.27;;
17207;SDS011;8720;48.488;9.202;2023-06-19T02:13:09;5.80;;;5.30;;
17207;SDS011;8720;48.488;9.202;2023-06-19T02:18:07;6.27;;;5.47;;
17207;SDS011;8720;48.488;9.202;2023-06-19T02:20:35;6.23;;;5.60;;
17207;SDS011;8720;48.488;9.202;2023-06-19T02:23:02;6.87;;;5.40;;
17207;SDS011;8720;48.488;9.202;2023-06-19T02:25:29;6.70;;;6.10;;
17207;SDS011;8720;48.488;9.202;2023-06-19T02:27:58;6.30;;;5.70;;
17207;SDS011;8720;48.488;9.202;2023-06-19T02:30:25;6.00;;;5.50;;
17207;SDS011;8720;48.488;9.202;2023-06-19T02:32:52;5.57;;;5.07;;
17207;SDS011;8720;48.488;9.202;2023-06-19T02:35:20;6.07;;;5.57;;
17207;SDS011;8720;48.488;9.202;2023-06-19T02:37:47;6.57;;;5.70;;
17207;SDS011;8720;48.488;9.202;2023-06-19T02:40:14;6.13;;;5.53;;
17207;SDS011;8720;48.488;9.202;2023-06-19T02:42:41;6.63;;;6.03;;
17207;SDS011;8720;48.488;9.202;2023-06-19T02:45:10;7.20;;;6.00;;
17207;SDS011;8720;48.488;9.202;2023-06-19T02:47:37;6.03;;;5.53;;
17207;SDS011;8720;48.488;9.202;2023-06-19T02:50:05;6.07;;;5.57;;
17207;SDS011;8720;48.488;9.202;2023-06-19T02:52:35;6.23;;;5.63;;
17207;SDS011;8720;48.488;9.202;2023-06-19T02:55:02;6.53;;;5.83;;
17207;SDS011;8720;48.488;9.202;2023-06-19T02:57:32;6.30;;;5.70;;
17207;SDS011;8720;48.488;9.202;2023-06-19T03:00:02;6.50;;;5.93;;
17207;SDS011;8720;48.488;9.202;2023-06-19T03:02:36;5.53;;;5.03;;
17207;SDS011;8720;48.488;9.202;2023-06-19T03:05:09;6.73;;;6.13;;
17207;SDS011;8720;48.488;9.202;2023-06-19T03:07:36;7.20;;;6.50;;
17207;SDS011;8720;48.488;9.202;2023-06-19T03:10:04;6.47;;;5.90;;
17207;SDS011;8720;48.488;9.202;2023-06-19T03:12:33;6.00;;;5.50;;
17207;SDS011;8720;48.488;9.202;2023-06-19T03:15:00;8.00;;;6.30;;
17207;SDS011;8720;48.488;9.202;2023-06-19T03:17:31;6.03;;;5.53;;
17207;SDS011;8720;48.488;9.202;2023-06-19T03:20:00;6.13;;;5.50;;
17207;SDS011;8720;48.488;9.202;2023-06-19T03:22:28;6.43;;;5.83;;
17207;SDS011;8720;48.488;9.202;2023-06-19T03:24:55;5.70;;;5.20;;
17207;SDS011;8720;48.488;9.202;2023-06-19T03:27:23;5.43;;;4.93;;
17207;SDS011;8720;48.488;9.202;2023-06-19T03:29:52;5.33;;;4.93;;
17207;SDS011;8720;48.488;9.202;2023-06-19T03:32:29;5.80;;;5.20;;
17207;SDS011;8720;48.488;9.202;2023-06-19T03:34:56;5.33;;;4.90;;
17207;SDS011;8720;48.488;9.202;2023-06-19T03:37:26;5.77;;;5.27;;
17207;SDS011;8720;48.488;9.202;2023-06-19T03:39:53;5.60;;;4.93;;
17207;SDS011;8720;48.488;9.202;2023-06-19T03:42:21;5.23;;;4.73;;
17207;SDS011;8720;48.488;9.202;2023-06-19T03:44:48;5.67;;;5.17;;
17207;SDS011;8720;48.488;9.202;2023-06-19T03:47:16;5.07;;;4.67;;
17207;SDS011;8720;48.488;9.202;2023-06-19T03:49:43;4.80;;;4.40;;
17207;SDS011;8720;48.488;9.202;2023-06-19T03:52:10;5.07;;;4.67;;
17207;SDS011;8720;48.488;9.202;2023-06-19T03:54:39;4.60;;;4.20;;
17207;SDS011;8720;48.488;9.202;2023-06-19T03:57:07;5.53;;;4.77;;
17207;SDS011;8720;48.488;9.202;2023-06-19T03:59:35;4.87;;;4.47;;
17207;SDS011;8720;48.488;9.202;2023-06-19T04:02:02;5.10;;;4.70;;
17207;SDS011;8720;48.488;9.202;2023-06-19T04:04:29;4.80;;;4.40;;
17207;SDS011;8720;48.488;9.202;2023-06-19T04:06:57;4.20;;;3.83;;
17207;SDS011;8720;48.488;9.202;2023-06-19T04:09:24;4.60;;;4.20;;
17207;SDS011;8720;48.488;9.202;2023-06-19T04:11:54;4.00;;;3.70;;
17207;SDS011;8720;48.488;9.202;2023-06-19T04:14:22;4.07;;;3.33;;
17207;SDS011;8720;48.488;9.202;2023-06-19T04:16:49;3.67;;;3.37;;
17207;SDS011;8720;48.488;9.202;2023-06-19T04:19:17;4.13;;;3.73;;
17207;SDS011;8720;48.488;9.202;2023-06-19T04:21:44;3.97;;;3.40;;
17207;SDS011;8720;48.488;9.202;2023-06-19T04:24:12;3.57;;;3.10;;
17207;SDS011;8720;48.488;9.202;2023-06-19T04:26:39;4.67;;;3.97;;
17207;SDS011;8720;48.488;9.202;2023-06-19T04:29:08;3.40;;;3.10;;
17207;SDS011;8720;48.488;9.202;2023-06-19T04:31:42;3.40;;;3.10;;
17207;SDS011;8720;48.488;9.202;2023-06-19T04:34:12;8.63;;;3.67;;
17207;SDS011;8720;48.488;9.202;2023-06-19T04:36:40;4.00;;;3.70;;
17207;SDS011;8720;48.488;9.202;2023-06-19T04:39:07;3.40;;;3.10;;
17207;SDS011;8720;48.488;9.202;2023-06-19T04:41:36;3.90;;;3.00;;
17207;SDS011;8720;48.488;9.202;2023-06-19T04:44:04;6.97;;;3.90;;
17207;SDS011;8720;48.488;9.202;2023-06-19T04:46:32;3.40;;;3.10;;
17207;SDS011;8720;48.488;9.202;2023-06-19T04:49:00;3.27;;;2.97;;
17207;SDS011;8720;48.488;9.202;2023-06-19T04:51:29;3.60;;;3.30;;
17207;SDS011;8720;48.488;9.202;2023-06-19T04:53:57;4.80;;;3.27;;
17207;SDS011;8720;48.488;9.202;2023-06-19T04:56:25;3.37;;;3.07;;
17207;SDS011;8720;48.488;9.202;2023-06-19T04:58:52;3.27;;;2.97;;
17207;SDS011;8720;48.488;9.202;2023-06-19T05:01:22;3.30;;;3.00;;
17207;SDS011;8720;48.488;9.202;2023-06-19T05:03:54;5.37;;;2.93;;
17207;SDS011;8720;48.488;9.202;2023-06-19T05:06:22;2.80;;;2.60;;
17207;SDS011;8720;48.488;9.202;2023-06-19T05:08:50;3.27;;;2.77;;
17207;SDS011;8720;48.488;9.202;2023-06-19T05:11:17;2.60;;;2.40;;
17207;SDS011;8720;48.488;9.202;2023-06-19T05:13:44;3.73;;;3.10;;
17207;SDS011;8720;48.488;9.202;2023-06-19T05:16:12;2.40;;;1.93;;
17207;SDS011;8720;48.488;9.202;2023-06-19T05:18:41;3.63;;;2.63;;
17207;SDS011;8720;48.488;9.202;2023-06-19T05:21:11;3.13;;;2.40;;
17207;SDS011;8720;48.488;9.202;2023-06-19T05:23:38;2.70;;;2.50;;
17207;SDS011;8720;48.488;9.202;2023-06-19T05:26:05;4.90;;;2.33;;
17207;SDS011;8720;48.488;9.202;2023-06-19T05:28:32;3.20;;;2.33;;
17207;SDS011;8720;48.488;9.202;2023-06-19T05:31:00;2.97;;;2.30;;
17207;SDS011;8720;48.488;9.202;2023-06-19T05:33:29;2.27;;;2.07;;
17207;SDS011;8720;48.488;9.202;2023-06-19T05:35:57;2.40;;;2.20;;
17207;SDS011;8720;48.488;9.202;2023-06-19T05:38:25;2.80;;;2.50;;
17207;SDS011;8720;48.488;9.202;2023-06-19T05:40:55;2.70;;;2.50;;
17207;SDS011;8720;48.488;9.202;2023-06-19T05:43:22;2.60;;;2.30;;
17207;SDS011;8720;48.488;9.202;2023-06-19T05:45:50;2.60;;;2.23;;
17207;SDS011;8720;48.488;9.202;2023-06-19T05:48:19;2.77;;;2.20;;
17207;SDS011;8720;48.488;9.202;2023-06-19T05:50:46;2.63;;;2.43;;
17207;SDS011;8720;48.488;9.202;2023-06-19T05:53:14;3.83;;;3.50;;
17207;SDS011;8720;48.488;9.202;2023-06-19T05:55:42;3.43;;;3.13;;
17207;SDS011;8720;48.488;9.202;2023-06-19T05:58:10;3.03;;;2.83;;
17207;SDS011;8720;48.488;9.202;2023-06-19T06:00:37;4.20;;;3.37;;
17207;SDS011;8720;48.488;9.202;2023-06-19T06:03:04;5.03;;;3.07;;
17207;SDS011;8720;48.488;9.202;2023-06-19T06:05:31;3.83;;;3.47;;
17207;SDS011;8720;48.488;9.202;2023-06-19T06:08:00;3.00;;;2.70;;
17207;SDS011;8720;48.488;9.202;2023-06-19T06:10:27;3.73;;;3.43;;
17207;SDS011;8720;48.488;9.202;2023-06-19T06:12:56;3.70;;;3.30;;
17207;SDS011;8720;48.488;9.202;2023-06-19T06:15:24;3.40;;;3.10;;
17207;SDS011;8720;48.488;9.202;2023-06-19T06:17:51;3.57;;;3.27;;
17207;SDS011;8720;48.488;9.202;2023-06-19T06:20:18;4.23;;;3.20;;
17207;SDS011;8720;48.488;9.202;2023-06-19T06:22:46;4.23;;;3.40;;
17207;SDS011;8720;48.488;9.202;2023-06-19T06:25:13;3.90;;;3.60;;
17207;SDS011;8720;48.488;9.202;2023-06-19T06:27:40;4.00;;;3.60;;
17207;SDS011;8720;48.488;9.202;2023-06-19T06:30:10;3.90;;;3.50;;
17207;SDS011;8720;48.488;9.202;2023-06-19T06:32:38;4.57;;;4.17;;
17207;SDS011;8720;48.488;9.202;2023-06-19T06:35:06;5.43;;;4.17;;
17207;SDS011;8720;48.488;9.202;2023-06-19T06:37:34;4.70;;;4.30;;
17207;SDS011;8720;48.488;9.202;2023-06-19T06:40:01;4.23;;;3.83;;
17207;SDS011;8720;48.488;9.202;2023-06-19T06:42:33;3.83;;;3.47;;
17207;SDS011;8720;48.488;9.202;2023-06-19T06:45:00;4.95;;;4.55;;
17207;SDS011;8720;48.488;9.202;2023-06-19T06:47:29;4.00;;;3.60;;
17207;SDS011;8720;48.488;9.202;2023-06-19T06:49:56;4.03;;;3.63;;
17207;SDS011;8720;48.488;9.202;2023-06-19T06:52:24;5.77;;;3.80;;
17207;SDS011;8720;48.488;9.202;2023-06-19T06:54:51;4.17;;;3.80;;
17207;SDS011;8720;48.488;9.202;2023-06-19T06:57:18;4.47;;;3.73;;
17207;SDS011;8720;48.488;9.202;2023-06-19T06:59:46;3.57;;;3.27;;
17207;SDS011;8720;48.488;9.202;2023-06-19T07:02:13;4.60;;;3.27;;
17207;SDS011;8720;48.488;9.202;2023-06-19T07:04:42;3.97;;;3.37;;
17207;SDS011;8720;48.488;9.202;2023-06-19T07:07:09;4.17;;;3.77;;
17207;SDS011;8720;48.488;9.202;2023-06-19T07:09:37;5.57;;;3.90;;
17207;SDS011;8720;48.488;9.202;2023-06-19T07:12:04;3.60;;;3.30;;
17207;SDS011;8720;48.488;9.202;2023-06-19T07:14:32;3.60;;;3.30;;
17207;SDS011;8720;48.488;9.202;2023-06-19T07:16:59;3.90;;;3.60;;
17207;SDS011;8720;48.488;9.202;2023-06-19T07:19:27;3.30;;;3.00;;
17207;SDS011;8720;48.488;9.202;2023-06-19T07:21:56;3.50;;;3.20;;
17207;SDS011;8720;48.488;9.202;2023-06-19T07:24:24;4.00;;;3.70;;
17207;SDS011;8720;48.488;9.202;2023-06-19T07:26:53;3.53;;;3.23;;
17207;SDS011;8720;48.488;9.202;2023-06-19T07:29:21;4.40;;;4.00;;
17207;SDS011;8720;48.488;9.202;2023-06-19T07:31:50;3.50;;;3.10;;
17207;SDS011;8720;48.488;9.202;2023-06-19T07:34:18;4.17;;;3.87;;
17207;SDS011;8720;48.488;9.202;2023-06-19T07:36:45;3.43;;;3.13;;
17207;SDS011;8720;48.488;9.202;2023-06-19T07:39:14;5.20;;;3.40;;
17207;SDS011;8720;48.488;9.202;2023-06-19T07:41:41;3.67;;;3.37;;
17207;SDS011;8720;48.488;9.202;2023-06-19T07:44:09;3.07;;;2.77;;
17207;SDS011;8720;48.488;9.202;2023-06-19T07:46:37;3.67;;;3.33;;
17207;SDS011;8720;48.488;9.202;2023-06-19T07:49:04;3.30;;;3.00;;
17207;SDS011;8720;48.488;9.202;2023-06-19T07:51:31;3.63;;;3.33;;
17207;SDS011;8720;48.488;9.202;2023-06-19T07:53:58;3.60;;;3.30;;
17207;SDS011;8720;48.488;9.202;2023-06-19T07:56:27;3.50;;;3.20;;
17207;SDS011;8720;48.488;9.202;2023-06-19T07:58:54;3.60;;;3.30;;
17207;SDS011;8720;48.488;9.202;2023-06-19T08:01:22;3.33;;;3.03;;
17207;SDS011;8720;48.488;9.202;2023-06-19T08:03:49;2.90;;;2.70;;
17207;SDS011;8720;48.488;9.202;2023-06-19T08:06:16;3.87;;;3.20;;
17207;SDS011;8720;48.488;9.202;2023-06-19T08:08:44;4.37;;;3.90;;
17207;SDS011;8720;48.488;9.202;2023-06-19T08:11:11;3.43;;;3.13;;
17207;SDS011;8720;48.488;9.202;2023-06-19T08:13:40;3.20;;;2.90;;
17207;SDS011;8720;48.488;9.202;2023-06-19T08:16:07;3.60;;;3.30;;
17207;SDS011;8720;48.488;9.202;2023-06-19T08:18:36;3.27;;;3.07;;
17207;SDS011;8720;48.488;9.202;2023-06-19T08:21:03;2.90;;;2.60;;
17207;SDS011;8720;48.488;9.202;2023-06-19T08:23:30;3.67;;;3.37;;
17207;SDS011;8720;48.488;9.202;2023-06-19T08:25:57;5.97;;;2.70;;
17207;SDS011;8720;48.488;9.202;2023-06-19T08:28:25;2.80;;;2.60;;
17207;SDS011;8720;48.488;9.202;2023-06-19T08:30:53;2.57;;;2.37;;
17207;SDS011;8720;48.488;9.202;2023-06-19T08:33:21;3.00;;;2.50;;
17207;SDS011;8720;48.488;9.202;2023-06-19T08:35:48;3.67;;;3.30;;
17207;SDS011;8720;48.488;9.202;2023-06-19T08:38:15;4.70;;;3.33;;
17207;SDS011;8720;48.488;9.202;2023-06-19T08:40:43;2.03;;;1.93;;
17207;SDS011;8720;48.488;9.202;2023-06-19T08:43:11;2.40;;;2.20;;
17207;SDS011;8720;48.488;9.202;2023-06-19T08:45:39;10.40;;;2.70;;
17207;SDS011;8720;48.488;9.202;2023-06-19T08:48:13;2.30;;;2.10;;
17207;SDS011;8720;48.488;9.202;2023-06-19T08:50:40;2.60;;;2.40;;
17207;SDS011;8720;48.488;9.202;2023-06-19T08:53:07;2.67;;;2.47;;
17207;SDS011;8720;48.488;9.202;2023-06-19T08:55:35;2.30;;;2.10;;
17207;SDS011;8720;48.488;9.202;2023-06-19T08:58:02;2.30;;;2.10;;
17207;SDS011;8720;48.488;9.202;2023-06-19T09:00:29;2.40;;;2.20;;
17207;SDS011;8720;48.488;9.202;2023-06-19T09:02:59;3.03;;;2.50;;
17207;SDS011;8720;48.488;9.202;2023-06-19T09:05:29;3.17;;;2.90;;
17207;SDS011;8720;48.488;9.202;2023-06-19T09:07:57;3.13;;;2.90;;
17207;SDS011;8720;48.488;9.202;2023-06-19T09:10:29;3.10;;;2.90;;
17207;SDS011;8720;48.488;9.202;2023-06-19T09:12:59;3.13;;;2.93;;
17207;SDS011;8720;48.488;9.202;2023-06-19T09:15:30;2.93;;;2.73;;
17207;SDS011;8720;48.488;9.202;2023-06-19T09:18:04;5.10;;;3.40;;
17207;SDS011;8720;48.488;9.202;2023-06-19T09:20:35;2.53;;;2.33;;
17207;SDS011;8720;48.488;9.202;2023-06-19T09:23:07;2.47;;;2.27;;
17207;SDS011;8720;48.488;9.202;2023-06-19T09:25:43;3.30;;;3.10;;
17207;SDS011;8720;48.488;9.202;2023-06-19T09:28:16;2.70;;;2.50;;
17207;SDS011;8720;48.488;9.202;2023-06-19T09:30:53;2.53;;;2.33;;
17207;SDS011;8720;48.488;9.202;2023-06-19T09:33:25;2.60;;;2.40;;
17207;SDS011;8720;48.488;9.202;2023-06-19T09:35:55;2.80;;;2.60;;
17207;SDS011;8720;48.488;9.202;2023-06-19T09:38:25;2.83;;;2.63;;
17207;SDS011;8720;48.488;9.202;2023-06-19T09:40:54;3.43;;;3.13;;
17207;SDS011;8720;48.488;9.202;2023-06-19T09:43:23;2.77;;;2.57;;
17207;SDS011;8720;48.488;9.202;2023-06-19T09:45:56;2.60;;;2.40;;
17207;SDS011;8720;48.488;9.202;2023-06-19T09:48:26;2.90;;;2.37;;
17207;SDS011;8720;48.488;9.202;2023-06-19T09:51:01;2.13;;;1.93;;
17207;SDS011;8720;48.488;9.202;2023-06-19T09:53:38;2.43;;;2.23;;
17207;SDS011;8720;48.488;9.202;2023-06-19T09:56:06;2.87;;;2.40;;
17207;SDS011;8720;48.488;9.202;2023-06-19T09:58:35;2.77;;;2.57;;
17207;SDS011;8720;48.488;9.202;2023-06-19T10:01:04;2.87;;;2.50;;
17207;SDS011;8720;48.488;9.202;2023-06-19T10:03:32;3.50;;;2.50;;
17207;SDS011;8720;48.488;9.202;2023-06-19T10:06:03;2.87;;;2.57;;
17207;SDS011;8720;48.488;9.202;2023-06-19T10:08:32;2.50;;;1.97;;
17207;SDS011;8720;48.488;9.202;2023-06-19T10:11:06;3.40;;;2.57;;
17207;SDS011;8720;48.488;9.202;2023-06-19T10:13:34;3.27;;;2.97;;
17207;SDS011;8720;48.488;9.202;2023-06-19T10:16:03;2.70;;;2.50;;
17207;SDS011;8720;48.488;9.202;2023-06-19T10:18:31;2.87;;;2.57;;
17207;SDS011;8720;48.488;9.202;2023-06-19T10:21:16;3.07;;;2.43;;
17207;SDS011;8720;48.488;9.202;2023-06-19T10:23:51;2.80;;;2.60;;
17207;SDS011;8720;48.488;9.202;2023-06-19T10:26:28;2.57;;;2.37;;
17207;SDS011;8720;48.488;9.202;2023-06-19T10:28:58;2.53;;;2.33;;
17207;SDS011;8720;48.488;9.202;2023-06-19T10:31:25;3.03;;;2.83;;
17207;SDS011;8720;48.488;9.202;2023-06-19T10:33:53;5.40;;;2.80;;
17207;SDS011;8720;48.488;9.202;2023-06-19T10:36:22;2.67;;;2.47;;
17207;SDS011;8720;48.488;9.202;2023-06-19T10:38:51;3.13;;;2.80;;
17207;SDS011;8720;48.488;9.202;2023-06-19T10:41:20;3.33;;;2.90;;
17207;SDS011;8720;48.488;9.202;2023-06-19T10:43:53;3.50;;;2.83;;
17207;SDS011;8720;48.488;9.202;2023-06-19T10:46:23;2.63;;;2.43;;
17207;SDS011;8720;48.488;9.202;2023-06-19T10:48:56;3.00;;;2.80;;
17207;SDS011;8720;48.488;9.202;2023-06-19T10:51:27;3.10;;;2.90;;
17207;SDS011;8720;48.488;9.202;2023-06-19T10:53:55;3.17;;;2.90;;
17207;SDS011;8720;48.488;9.202;2023-06-19T10:56:24;3.50;;;3.20;;
17207;SDS011;8720;48.488;9.202;2023-06-19T10:58:56;2.93;;;2.73;;
17207;SDS011;8720;48.488;9.202;2023-06-19T11:01:31;3.13;;;2.83;;
17207;SDS011;8720;48.488;9.202;2023-06-19T11:04:02;3.13;;;2.93;;
17207;SDS011;8720;48.488;9.202;2023-06-19T11:06:33;3.57;;;3.27;;
17207;SDS011;8720;48.488;9.202;2023-06-19T11:09:01;3.23;;;3.03;;
17207;SDS011;8720;48.488;9.202;2023-06-19T11:11:36;3.53;;;2.83;;
17207;SDS011;8720;48.488;9.202;2023-06-19T11:14:05;3.50;;;3.20;;
17207;SDS011;8720;48.488;9.202;2023-06-19T11:16:34;3.47;;;3.17;;
17207;SDS011;8720;48.488;9.202;2023-06-19T11:19:06;3.60;;;3.10;;
17207;SDS011;8720;48.488;9.202;2023-06-19T11:21:36;3.10;;;2.90;;
17207;SDS011;8720;48.488;9.202;2023-06-19T11:24:04;3.20;;;2.90;;
17207;SDS011;8720;48.488;9.202;2023-06-19T11:26:38;3.70;;;3.13;;
17207;SDS011;8720;48.488;9.202;2023-06-19T11:29:15;3.07;;;2.87;;
17207;SDS011;8720;48.488;9.202;2023-06-19T11:31:44;3.00;;;2.80;;
17207;SDS011;8720;48.488;9.202;2023-06-19T11:34:12;4.10;;;3.13;;
17207;SDS011;8720;48.488;9.202;2023-06-19T11:36:41;3.40;;;3.20;;
17207;SDS011;8720;48.488;9.202;2023-06-19T11:39:11;3.37;;;3.07;;
17207;SDS011;8720;48.488;9.202;2023-06-19T11:41:43;4.70;;;3.00;;
17207;SDS011;8720;48.488;9.202;2023-06-19T11:44:11;2.80;;;2.60;;
17207;SDS011;8720;48.488;9.202;2023-06-19T11:46:38;2.70;;;2.50;;
17207;SDS011;8720;48.488;9.202;2023-06-19T11:49:10;2.83;;;2.50;;
17207;SDS011;8720;48.488;9.202;2023-06-19T11:51:39;3.00;;;2.80;;
17207;SDS011;8720;48.488;9.202;2023-06-19T11:54:09;2.77;;;2.57;;
17207;SDS011;8720;48.488;9.202;2023-06-19T11:56:39;2.73;;;2.37;;
17207;SDS011;8720;48.488;9.202;2023-06-19T11:59:07;2.70;;;2.50;;
17207;SDS011;8720;48.488;9.202;2023-06-19T12:01:36;2.80;;;2.60;;
17207;SDS011;8720;48.488;9.202;2023-06-19T12:04:04;2.97;;;2.60;;
17207;SDS011;8720;48.488;9.202;2023-06-19T12:06:31;2.47;;;2.27;;
17207;SDS011;8720;48.488;9.202;2023-06-19T12:09:01;2.87;;;2.57;;
17207;SDS011;8720;48.488;9.202;2023-06-19T12:11:30;3.27;;;2.63;;
17207;SDS011;8720;48.488;9.202;2023-06-19T12:13:58;2.83;;;2.63;;
17207;SDS011;8720;48.488;9.202;2023-06-19T12:16:25;2.77;;;2.57;;
17207;SDS011;8720;48.488;9.202;2023-06-19T12:18:53;3.13;;;2.93;;
17207;SDS011;8720;48.488;9.202;2023-06-19T12:21:20;3.30;;;3.00;;
17207;SDS011;8720;48.488;9.202;2023-06-19T12:23:48;3.03;;;2.83;;
17207;SDS011;8720;48.488;9.202;2023-06-19T12:26:16;3.13;;;2.93;;
17207;SDS011;8720;48.488;9.202;2023-06-19T12:28:45;2.63;;;2.43;;
17207;SDS011;8720;48.488;9.202;2023-06-19T12:31:12;2.67;;;2.47;;
17207;SDS011;8720;48.488;9.202;2023-06-19T12:33:40;3.10;;;2.80;;
17207;SDS011;8720;48.488;9.202;2023-06-19T12:36:10;2.70;;;2.50;;
17207;SDS011;8720;48.488;9.202;2023-06-19T12:38:38;2.50;;;2.30;;
17207;SDS011;8720;48.488;9.202;2023-06-19T12:41:06;2.57;;;2.37;;
17207;SDS011;8720;48.488;9.202;2023-06-19T12:43:35;2.70;;;2.50;;
17207;SDS011;8720;48.488;9.202;2023-06-19T12:46:02;2.53;;;2.33;;
17207;SDS011;8720;48.488;9.202;2023-06-19T12:48:29;3.93;;;3.20;;
17207;SDS011;8720;48.488;9.202;2023-06-19T12:50:58;2.70;;;2.50;;
17207;SDS011;8720;48.488;9.202;2023-06-19T12:53:25;2.90;;;2.70;;
17207;SDS011;8720;48.488;9.202;2023-06-19T12:55:56;2.93;;;2.73;;
17207;SDS011;8720;48.488;9.202;2023-06-19T12:58:24;3.20;;;2.90;;
17207;SDS011;8720;48.488;9.202;2023-06-19T13:00:53;2.63;;;2.43;;
17207;SDS011;8720;48.488;9.202;2023-06-19T13:03:21;3.10;;;2.90;;
17207;SDS011;8720;48.488;9.202;2023-06-19T13:05:48;3.00;;;2.70;;
17207;SDS011;8720;48.488;9.202;2023-06-19T13:08:16;3.03;;;2.83;;
17207;SDS011;8720;48.488;9.202;2023-06-19T13:10:43;2.90;;;2.70;;
17207;SDS011;8720;48.488;9.202;2023-06-19T13:13:11;2.97;;;2.77;;
17207;SDS011;8720;48.488;9.202;2023-06-19T13:15:38;3.10;;;2.90;;
17207;SDS011;8720;48.488;9.202;2023-06-19T13:18:07;3.47;;;3.17;;
17207;SDS011;8720;48.488;9.202;2023-06-19T13:20:34;3.47;;;3.17;;
17207;SDS011;8720;48.488;9.202;2023-06-19T13:23:01;2.90;;;2.70;;
17207;SDS011;8720;48.488;9.202;2023-06-19T13:25:28;2.90;;;2.70;;
17207;SDS011;8720;48.488;9.202;2023-06-19T13:27:57;3.30;;;2.73;;
17207;SDS011;8720;48.488;9.202;2023-06-19T13:30:25;3.80;;;3.30;;
17207;SDS011;8720;48.488;9.202;2023-06-19T13:32:52;3.63;;;3.33;;
17207;SDS011;8720;48.488;9.202;2023-06-19T13:35:21;3.20;;;2.90;;
17207;SDS011;8720;48.488;9.202;2023-06-19T13:37:48;3.30;;;3.00;;
17207;SDS011;8720;48.488;9.202;2023-06-19T13:40:15;3.27;;;2.97;;
17207;SDS011;8720;48.488;9.202;2023-06-19T13:42:42;3.17;;;2.87;;
17207;SDS011;8720;48.488;9.202;2023-06-19T13:45:10;3.17;;;2.87;;
17207;SDS011;8720;48.488;9.202;2023-06-19T13:47:37;3.20;;;2.90;;
17207;SDS011;8720;48.488;9.202;2023-06-19T13:50:05;3.33;;;3.03;;
17207;SDS011;8720;48.488;9.202;2023-06-19T13:52:35;3.03;;;2.83;;
17207;SDS011;8720;48.488;9.202;2023-06-19T13:55:03;3.77;;;3.30;;
17207;SDS011;8720;48.488;9.202;2023-06-19T13:57:31;3.23;;;3.03;;
17207;SDS011;8720;48.488;9.202;2023-06-19T13:59:58;3.30;;;3.10;;
17207;SDS011;8720;48.488;9.202;2023-06-19T14:02:26;3.73;;;3.43;;
17207;SDS011;8720;48.488;9.202;2023-06-19T14:04:53;3.03;;;2.83;;
17207;SDS011;8720;48.488;9.202;2023-06-19T14:07:22;4.00;;;3.53;;
17207;SDS011;8720;48.488;9.202;2023-06-19T14:09:51;3.53;;;3.23;;
17207;SDS011;8720;48.488;9.202;2023-06-19T14:12:19;3.27;;;3.07;;
17207;SDS011;8720;48.488;9.202;2023-06-19T14:14:46;3.70;;;3.40;;
17207;SDS011;8720;48.488;9.202;2023-06-19T14:17:17;3.80;;;3.50;;
17207;SDS011;8720;48.488;9.202;2023-06-19T14:19:44;3.80;;;3.50;;
17207;SDS011;8720;48.488;9.202;2023-06-19T14:22:11;3.80;;;3.50;;
17207;SDS011;8720;48.488;9.202;2023-06-19T14:24:39;4.27;;;3.87;;
17207;SDS011;8720;48.488;9.202;2023-06-19T14:27:08;4.13;;;3.83;;
17207;SDS011;8720;48.488;9.202;2023-06-19T14:29:35;4.27;;;3.87;;
17207;SDS011;8720;48.488;9.202;2023-06-19T14:32:02;4.10;;;3.80;;
17207;SDS011;8720;48.488;9.202;2023-06-19T14:34:30;3.67;;;3.37;;
17207;SDS011;8720;48.488;9.202;2023-06-19T14:36:58;3.77;;;3.47;;
17207;SDS011;8720;48.488;9.202;2023-06-19T14:39:25;3.87;;;3.57;;
17207;SDS011;8720;48.488;9.202;2023-06-19T14:41:53;4.07;;;3.77;;
17207;SDS011;8720;48.488;9.202;2023-06-19T14:44:21;4.90;;;4.50;;
17207;SDS011;8720;48.488;9.202;2023-06-19T14:46:49;4.67;;;4.37;;
17207;SDS011;8720;48.488;9.202;2023-06-19T14:49:16;3.80;;;3.50;;
17207;SDS011;8720;48.488;9.202;2023-06-19T14:51:45;4.33;;;4.03;;
17207;SDS011;8720;48.488;9.202;2023-06-19T14:54:12;4.53;;;4.20;;
17207;SDS011;8720;48.488;9.202;2023-06-19T14:56:41;5.50;;;4.23;;
17207;SDS011;8720;48.488;9.202;2023-06-19T14:59:09;4.03;;;3.73;;
17207;SDS011;8720;48.488;9.202;2023-06-19T15:01:38;4.03;;;3.63;;
17207;SDS011;8720;48.488;9.202;2023-06-19T15:04:05;4.03;;;3.73;;
17207;SDS011;8720;48.488;9.202;2023-06-19T15:06:33;4.53;;;4.13;;
17207;SDS011;8720;48.488;9.202;2023-06-19T15:09:00;4.53;;;4.23;;
17207;SDS011;8720;48.488;9.202;2023-06-19T15:11:27;4.50;;;4.20;;
17207;SDS011;8720;48.488;9.202;2023-06-19T15:13:55;4.70;;;4.23;;
17207;SDS011;8720;48.488;9.202;2023-06-19T15:16:22;4.20;;;3.90;;